createdAt,value
2022-10-29T00:00:56.290Z,3.78
2022-10-29T00:03:23.821Z,3.78
2022-10-29T00:06:01.822Z,3.65
2022-10-29T00:08:30.053Z,3.63
2022-10-29T00:11:05.177Z,3.90
2022-10-29T00:13:31.929Z,4.30
2022-10-29T00:15:58.695Z,5.05
2022-10-29T00:18:25.396Z,6.20
2022-10-29T00:21:00.647Z,8.00
2022-10-29T00:23:27.419Z,10.15
2022-10-29T00:25:58.513Z,8.63
2022-10-29T00:28:26.164Z,6.30
2022-10-29T00:30:52.999Z,5.80
2022-10-29T00:36:00.756Z,4.88
2022-10-29T00:38:28.039Z,5.20
2022-10-29T00:40:55.218Z,4.97
2022-10-29T00:43:24.580Z,5.05
2022-10-29T00:46:01.358Z,5.47
2022-10-29T00:48:31.792Z,5.03
2022-10-29T00:51:00.779Z,5.03
2022-10-29T00:53:30.291Z,5.60
2022-10-29T00:55:58.122Z,5.80
2022-10-29T00:58:25.626Z,6.15
2022-10-29T01:00:52.405Z,4.53
2022-10-29T01:03:19.150Z,4.78
2022-10-29T01:05:46.769Z,4.38
2022-10-29T01:08:15.257Z,4.45
2022-10-29T01:11:20.937Z,4.30
2022-10-29T01:13:59.075Z,5.05
2022-10-29T01:16:43.942Z,4.65
2022-10-29T01:19:38.670Z,4.65
2022-10-29T01:22:35.066Z,4.68
2022-10-29T01:25:19.946Z,4.60
2022-10-29T01:28:03.300Z,4.57
2022-10-29T01:30:46.657Z,4.55
2022-10-29T01:33:23.459Z,4.18
2022-10-29T01:36:23.386Z,4.47
2022-10-29T01:39:08.844Z,3.90
2022-10-29T01:41:51.044Z,4.43
2022-10-29T01:44:55.866Z,4.00
2022-10-29T01:47:28.643Z,3.53
2022-10-29T01:50:00.432Z,3.92
2022-10-29T01:52:31.020Z,5.72
2022-10-29T01:54:58.485Z,4.40
2022-10-29T01:57:25.825Z,3.95
2022-10-29T01:59:56.100Z,4.45
2022-10-29T02:02:43.316Z,4.22
2022-10-29T02:05:56.221Z,3.47
2022-10-29T02:08:57.126Z,5.35
2022-10-29T02:11:57.199Z,4.53
2022-10-29T02:14:35.750Z,6.28
2022-10-29T02:17:03.000Z,8.85
2022-10-29T02:19:34.700Z,7.65
2022-10-29T02:22:01.588Z,8.52
2022-10-29T02:24:28.834Z,8.98
2022-10-29T02:26:55.590Z,8.25
2022-10-29T02:29:23.155Z,7.63
2022-10-29T02:31:50.028Z,7.22
2022-10-29T02:34:17.800Z,7.20
2022-10-29T02:36:44.785Z,7.05
2022-10-29T02:39:11.659Z,7.90
2022-10-29T02:41:38.366Z,6.72
2022-10-29T02:44:05.084Z,7.28
2022-10-29T02:46:31.966Z,6.43
2022-10-29T02:48:58.672Z,5.43
2022-10-29T02:51:25.406Z,5.13
2022-10-29T02:53:52.160Z,4.97
2022-10-29T02:56:18.949Z,5.65
2022-10-29T02:58:45.711Z,5.93
2022-10-29T03:01:12.637Z,5.97
2022-10-29T03:03:39.388Z,5.35
2022-10-29T03:06:15.727Z,5.63
2022-10-29T03:08:42.579Z,5.65
2022-10-29T03:11:10.033Z,5.38
2022-10-29T03:16:05.200Z,4.82
2022-10-29T03:18:31.916Z,4.82
2022-10-29T03:20:58.663Z,4.82
2022-10-29T03:23:25.420Z,4.85
2022-10-29T03:25:56.662Z,5.22
2022-10-29T03:28:25.112Z,4.68
2022-10-29T03:30:52.083Z,5.30
2022-10-29T03:33:18.851Z,4.68
2022-10-29T03:35:45.671Z,5.07
2022-10-29T03:38:12.481Z,5.70
2022-10-29T03:40:39.226Z,5.25
2022-10-29T03:43:05.983Z,5.22
2022-10-29T03:45:32.845Z,4.95
2022-10-29T03:47:59.572Z,5.30
2022-10-29T03:50:26.307Z,4.35
2022-10-29T03:52:53.068Z,4.63
2022-10-29T03:55:19.777Z,4.70
2022-10-29T03:57:46.489Z,4.80
2022-10-29T04:00:13.849Z,4.70
2022-10-29T04:02:40.847Z,4.53
2022-10-29T04:05:08.312Z,4.15
2022-10-29T04:07:35.094Z,4.10
2022-10-29T04:10:01.903Z,4.90
2022-10-29T04:12:29.518Z,4.32
2022-10-29T04:14:56.254Z,4.45
2022-10-29T04:17:22.974Z,4.15
2022-10-29T04:19:49.673Z,4.40
2022-10-29T04:24:48.768Z,4.45
2022-10-29T04:28:41.782Z,4.78
2022-10-29T04:30:36.691Z,4.53
2022-10-29T04:33:03.508Z,5.60
2022-10-29T04:35:30.322Z,6.15
2022-10-29T04:37:57.529Z,4.97
2022-10-29T04:40:24.741Z,5.00
2022-10-29T04:42:51.513Z,5.60
2022-10-29T04:45:18.703Z,5.65
2022-10-29T04:47:45.759Z,5.80
2022-10-29T04:50:12.673Z,6.53
2022-10-29T04:52:39.429Z,6.15
2022-10-29T04:55:06.487Z,5.40
2022-10-29T04:57:33.218Z,4.75
2022-10-29T04:59:59.921Z,4.60
2022-10-29T05:02:26.665Z,4.40
2022-10-29T05:04:53.386Z,4.43
2022-10-29T05:07:20.091Z,5.00
2022-10-29T05:09:46.837Z,5.40
2022-10-29T05:12:13.544Z,5.20
2022-10-29T05:14:40.282Z,5.20
2022-10-29T05:19:38.695Z,4.25
2022-10-29T05:22:05.448Z,4.53
2022-10-29T05:24:32.179Z,4.00
2022-10-29T05:26:58.923Z,4.22
2022-10-29T05:29:25.626Z,4.07
2022-10-29T05:31:55.411Z,4.30
2022-10-29T05:34:22.190Z,4.93
2022-10-29T05:36:49.205Z,4.38
2022-10-29T05:39:16.262Z,4.70
2022-10-29T05:41:43.760Z,5.00
2022-10-29T05:44:10.468Z,4.10
2022-10-29T05:46:37.342Z,4.35
2022-10-29T05:49:04.483Z,4.25
2022-10-29T05:51:31.294Z,4.70
2022-10-29T05:53:58.020Z,4.85
2022-10-29T05:56:24.737Z,4.35
2022-10-29T05:58:52.584Z,4.65
2022-10-29T06:01:19.878Z,5.15
2022-10-29T06:03:47.309Z,5.68
2022-10-29T06:06:14.106Z,5.15
2022-10-29T06:08:40.911Z,5.35
2022-10-29T06:11:07.656Z,6.57
2022-10-29T06:13:34.520Z,6.15
2022-10-29T06:16:01.273Z,6.90
2022-10-29T06:18:28.679Z,7.25
2022-10-29T06:20:59.019Z,7.22
2022-10-29T06:23:26.009Z,7.50
2022-10-29T06:25:52.825Z,8.07
2022-10-29T06:28:19.953Z,8.27
2022-10-29T06:30:49.029Z,8.82
2022-10-29T06:33:17.089Z,7.95
2022-10-29T06:35:43.909Z,8.48
2022-10-29T06:38:12.388Z,7.68
2022-10-29T06:40:40.630Z,7.57
2022-10-29T06:43:11.969Z,7.32
2022-10-29T06:45:39.178Z,8.00
2022-10-29T06:48:06.290Z,6.57
2022-10-29T06:50:33.131Z,7.85
2022-10-29T06:53:07.566Z,6.78
2022-10-29T06:55:34.868Z,7.25
2022-10-29T06:58:05.560Z,9.18
2022-10-29T07:00:33.788Z,8.05
2022-10-29T07:03:01.004Z,8.75
2022-10-29T07:05:27.996Z,8.68
2022-10-29T07:07:56.869Z,10.30
2022-10-29T07:10:25.016Z,9.82
2022-10-29T07:12:51.990Z,7.55
2022-10-29T07:15:18.846Z,8.55
2022-10-29T07:18:03.751Z,10.13
2022-10-29T07:20:34.330Z,12.15
2022-10-29T07:23:01.541Z,11.05
2022-10-29T07:25:29.622Z,11.73
2022-10-29T07:28:03.277Z,9.55
2022-10-29T07:30:30.132Z,8.93
2022-10-29T07:32:56.877Z,8.52
2022-10-29T07:35:23.965Z,8.10
2022-10-29T07:37:50.725Z,7.78
2022-10-29T07:40:17.554Z,7.82
2022-10-29T07:42:44.260Z,6.40
2022-10-29T07:45:11.077Z,6.80
2022-10-29T07:47:38.061Z,7.85
2022-10-29T07:50:05.108Z,8.85
2022-10-29T07:52:31.949Z,9.80
2022-10-29T07:55:01.384Z,9.85
2022-10-29T07:57:28.841Z,10.15
2022-10-29T07:59:56.513Z,10.27
2022-10-29T08:02:23.413Z,9.13
2022-10-29T08:04:50.139Z,8.73
2022-10-29T08:07:16.957Z,8.50
2022-10-29T08:09:43.671Z,8.48
2022-10-29T08:12:11.313Z,8.50
2022-10-29T08:14:38.082Z,9.00
2022-10-29T08:17:04.812Z,8.38
2022-10-29T08:19:31.519Z,9.25
2022-10-29T08:21:58.322Z,9.32
2022-10-29T08:24:25.191Z,9.68
2022-10-29T08:26:52.089Z,8.90
2022-10-29T08:29:18.881Z,9.13
2022-10-29T08:31:45.689Z,8.80
2022-10-29T08:34:12.668Z,8.23
2022-10-29T08:36:40.863Z,8.07
2022-10-29T08:39:07.829Z,7.97
2022-10-29T08:42:04.067Z,7.13
2022-10-29T08:44:51.468Z,7.80
2022-10-29T08:47:21.201Z,10.13
2022-10-29T08:49:54.765Z,8.85
2022-10-29T08:52:26.458Z,9.60
2022-10-29T08:55:13.106Z,8.52
2022-10-29T08:57:44.952Z,8.40
2022-10-29T09:00:15.814Z,9.50
2022-10-29T09:02:42.597Z,8.45
2022-10-29T09:05:24.868Z,8.10
2022-10-29T09:08:05.872Z,9.63
2022-10-29T09:10:51.205Z,7.57
2022-10-29T09:13:42.592Z,8.23
2022-10-29T09:16:21.520Z,9.07
2022-10-29T09:19:10.994Z,8.93
2022-10-29T09:22:29.168Z,9.13
2022-10-29T09:25:17.799Z,9.25
2022-10-29T09:28:00.697Z,8.85
2022-10-29T09:30:31.306Z,8.18
2022-10-29T09:33:08.675Z,8.73
2022-10-29T09:35:57.188Z,9.05
2022-10-29T09:38:30.424Z,7.75
2022-10-29T09:41:01.021Z,8.52
2022-10-29T09:43:42.862Z,8.68
2022-10-29T09:46:38.828Z,9.48
2022-10-29T09:49:24.121Z,8.73
2022-10-29T09:52:08.456Z,9.13
2022-10-29T09:54:35.607Z,8.05
2022-10-29T09:57:05.411Z,7.75
2022-10-29T09:59:35.110Z,7.57
2022-10-29T10:02:02.765Z,7.03
2022-10-29T10:04:36.126Z,7.45
2022-10-29T10:07:07.299Z,7.68
2022-10-29T10:10:01.577Z,7.47
2022-10-29T10:12:45.389Z,7.28
2022-10-29T10:15:26.894Z,7.07
2022-10-29T10:18:04.347Z,8.43
2022-10-29T10:20:38.777Z,7.63
2022-10-29T10:23:53.752Z,7.18
2022-10-29T10:26:26.620Z,6.50
2022-10-29T10:29:17.313Z,6.78
2022-10-29T10:32:10.056Z,6.18
2022-10-29T10:34:39.118Z,6.30
2022-10-29T10:37:07.486Z,6.53
2022-10-29T10:39:39.732Z,6.38
2022-10-29T10:42:22.394Z,5.43
2022-10-29T10:44:58.790Z,5.72
2022-10-29T10:47:28.867Z,6.20
2022-10-29T10:50:22.727Z,5.53
2022-10-29T10:52:50.095Z,5.55
2022-10-29T10:55:31.705Z,5.50
2022-10-29T10:58:16.327Z,5.30
2022-10-29T11:01:10.034Z,4.45
2022-10-29T11:03:48.754Z,5.07
2022-10-29T11:06:23.325Z,4.68
2022-10-29T11:09:03.048Z,4.43
2022-10-29T11:11:41.848Z,4.63
2022-10-29T11:14:22.325Z,4.60
2022-10-29T11:16:55.624Z,4.22
2022-10-29T11:19:34.197Z,4.50
2022-10-29T11:22:26.016Z,5.40
2022-10-29T11:25:10.438Z,5.32
2022-10-29T11:27:54.877Z,4.38
2022-10-29T11:30:22.150Z,4.25
2022-10-29T11:33:11.393Z,4.10
2022-10-29T11:35:38.241Z,4.38
2022-10-29T11:38:18.489Z,3.85
2022-10-29T11:41:07.496Z,4.03
2022-10-29T11:43:34.377Z,4.38
2022-10-29T11:46:01.715Z,4.15
2022-10-29T11:48:52.019Z,3.97
2022-10-29T11:51:24.606Z,3.60
2022-10-29T11:54:18.651Z,3.37
2022-10-29T12:00:02.692Z,3.85
2022-10-29T12:02:48.147Z,3.55
2022-10-29T12:05:36.598Z,3.63
2022-10-29T12:08:12.240Z,4.05
2022-10-29T12:10:49.225Z,3.85
2022-10-29T12:13:34.426Z,3.58
2022-10-29T12:16:35.123Z,3.70
2022-10-29T12:19:20.120Z,4.75
2022-10-29T12:22:01.536Z,3.13
2022-10-29T12:24:59.306Z,4.10
2022-10-29T12:27:50.285Z,4.18
2022-10-29T12:30:19.025Z,3.45
2022-10-29T12:32:59.516Z,3.55
2022-10-29T12:36:03.732Z,4.10
2022-10-29T12:38:41.662Z,3.40
2022-10-29T12:41:40.323Z,3.47
2022-10-29T12:44:15.981Z,2.45
2022-10-29T12:47:10.437Z,3.78
2022-10-29T12:49:55.102Z,3.47
2022-10-29T12:52:42.525Z,3.50
2022-10-29T12:55:12.326Z,3.33
2022-10-29T12:57:39.540Z,2.92
2022-10-29T13:00:24.268Z,2.97
2022-10-29T13:02:52.410Z,3.47
2022-10-29T13:05:45.163Z,2.90
2022-10-29T13:08:21.337Z,3.13
2022-10-29T13:10:50.072Z,3.58
2022-10-29T13:13:17.837Z,3.80
2022-10-29T13:16:03.549Z,2.92
2022-10-29T13:18:41.759Z,2.83
2022-10-29T13:21:09.190Z,3.22
2022-10-29T13:23:37.543Z,2.97
2022-10-29T13:26:06.793Z,2.90
2022-10-29T13:28:36.664Z,2.88
2022-10-29T13:31:06.106Z,3.10
2022-10-29T13:33:32.794Z,2.75
2022-10-29T13:36:04.245Z,3.10
2022-10-29T13:39:05.682Z,3.30
2022-10-29T13:41:41.995Z,2.90
2022-10-29T13:44:26.091Z,3.42
2022-10-29T13:46:55.739Z,3.03
2022-10-29T13:49:24.874Z,3.20
2022-10-29T13:52:05.112Z,3.03
2022-10-29T13:54:49.464Z,3.10
2022-10-29T13:57:22.713Z,3.05
2022-10-29T14:02:42.773Z,2.92
2022-10-29T14:05:20.455Z,2.85
2022-10-29T14:08:06.215Z,3.00
2022-10-29T14:10:45.715Z,3.50
2022-10-29T14:13:29.697Z,3.15
2022-10-29T14:16:05.685Z,3.10
2022-10-29T14:18:35.633Z,3.00
2022-10-29T14:21:04.354Z,3.50
2022-10-29T14:23:32.488Z,3.40
2022-10-29T14:26:01.444Z,2.92
2022-10-29T14:28:32.663Z,2.75
2022-10-29T14:31:15.227Z,3.30
2022-10-29T14:33:51.801Z,3.20
2022-10-29T14:36:35.968Z,3.08
2022-10-29T14:39:13.187Z,3.08
2022-10-29T14:41:40.289Z,3.13
2022-10-29T14:44:17.546Z,3.28
2022-10-29T14:47:02.753Z,3.47
2022-10-29T14:49:30.775Z,2.92
2022-10-29T14:52:02.087Z,3.53
2022-10-29T14:54:49.638Z,3.20
2022-10-29T14:57:19.277Z,3.22
2022-10-29T14:59:59.122Z,3.47
2022-10-29T15:02:38.138Z,3.50
2022-10-29T15:05:24.722Z,3.10
2022-10-29T15:07:52.092Z,2.90
2022-10-29T15:10:20.886Z,3.72
2022-10-29T15:12:48.544Z,3.20
2022-10-29T15:15:18.784Z,3.03
2022-10-29T15:17:54.278Z,3.13
2022-10-29T15:20:36.457Z,3.55
2022-10-29T15:23:03.833Z,3.47
2022-10-29T15:25:35.730Z,3.60
2022-10-29T15:28:02.985Z,3.17
2022-10-29T15:30:39.441Z,3.58
2022-10-29T15:33:13.507Z,3.20
2022-10-29T15:35:51.787Z,3.70
2022-10-29T15:38:30.809Z,3.78
2022-10-29T15:41:20.124Z,3.08
2022-10-29T15:43:55.338Z,4.07
2022-10-29T15:46:26.399Z,3.40
2022-10-29T15:48:53.368Z,4.07
2022-10-29T15:51:28.280Z,4.93
2022-10-29T15:53:56.521Z,5.20
2022-10-29T15:56:24.285Z,5.13
2022-10-29T15:58:52.404Z,5.53
2022-10-29T16:01:19.298Z,4.53
2022-10-29T16:03:46.127Z,4.55
2022-10-29T16:06:15.538Z,4.32
2022-10-29T16:08:49.069Z,5.10
2022-10-29T16:13:44.631Z,5.35
2022-10-29T16:16:14.464Z,6.20
2022-10-29T16:18:41.201Z,5.80
2022-10-29T16:21:07.900Z,6.18
2022-10-29T16:23:37.639Z,6.82
2022-10-29T16:26:04.842Z,8.63
2022-10-29T16:28:31.581Z,7.55
2022-10-29T16:30:59.674Z,7.40
2022-10-29T16:33:26.931Z,6.55
2022-10-29T16:35:53.664Z,6.55
2022-10-29T16:38:20.359Z,5.38
2022-10-29T16:40:47.090Z,5.38
2022-10-29T16:43:13.825Z,14.05
2022-10-29T16:45:40.704Z,16.42
2022-10-29T16:48:12.144Z,15.75
2022-10-29T16:50:39.012Z,14.90
2022-10-29T16:53:08.817Z,14.98
2022-10-29T16:55:37.802Z,12.98
2022-10-29T16:58:06.782Z,11.23
2022-10-29T17:00:36.323Z,11.23
2022-10-29T17:03:06.856Z,9.40
2022-10-29T17:05:40.120Z,8.15
2022-10-29T17:08:07.565Z,8.25
2022-10-29T17:10:35.645Z,8.88
2022-10-29T17:13:02.537Z,9.32
2022-10-29T17:15:29.684Z,10.40
2022-10-29T17:17:56.970Z,11.98
2022-10-29T17:20:23.974Z,10.38
2022-10-29T17:22:52.811Z,6.53
2022-10-29T17:25:19.572Z,6.30
2022-10-29T17:27:46.303Z,5.50
2022-10-29T17:30:13.129Z,4.68
2022-10-29T17:32:39.922Z,5.07
2022-10-29T17:35:06.910Z,4.65
2022-10-29T17:37:34.441Z,4.05
2022-10-29T17:40:04.794Z,4.90
2022-10-29T17:42:34.250Z,4.70
2022-10-29T17:45:00.970Z,4.63
2022-10-29T17:47:27.798Z,5.03
2022-10-29T17:49:54.729Z,4.63
2022-10-29T17:52:22.316Z,4.63
2022-10-29T17:54:49.028Z,4.72
2022-10-29T17:57:15.735Z,4.20
2022-10-29T17:59:43.996Z,4.18
2022-10-29T18:02:11.727Z,4.40
2022-10-29T18:04:41.197Z,4.55
2022-10-29T18:07:07.940Z,4.57
2022-10-29T18:09:34.715Z,4.30
2022-10-29T18:12:01.432Z,4.45
2022-10-29T18:14:28.256Z,4.88
2022-10-29T18:16:58.309Z,5.82
2022-10-29T18:19:25.099Z,5.53
2022-10-29T18:21:52.009Z,5.45
2022-10-29T18:24:19.389Z,4.28
2022-10-29T18:26:50.133Z,4.28
2022-10-29T18:29:17.000Z,4.88
2022-10-29T18:31:46.804Z,5.63
2022-10-29T18:34:15.156Z,5.60
2022-10-29T18:36:42.888Z,10.43
2022-10-29T18:39:09.730Z,7.72
2022-10-29T18:41:36.552Z,6.93
2022-10-29T18:44:03.609Z,7.65
2022-10-29T18:46:30.391Z,6.97
2022-10-29T18:48:57.715Z,7.03
2022-10-29T18:51:30.387Z,7.60
2022-10-29T18:53:58.290Z,6.15
2022-10-29T18:56:27.090Z,4.70
2022-10-29T18:58:55.585Z,4.43
2022-10-29T19:01:25.663Z,4.65
2022-10-29T19:03:58.205Z,4.38
2022-10-29T19:06:28.242Z,4.78
2022-10-29T19:08:55.338Z,4.72
2022-10-29T19:11:26.483Z,3.65
2022-10-29T19:13:54.811Z,4.05
2022-10-29T19:16:21.920Z,5.25
2022-10-29T19:18:53.563Z,5.93
2022-10-29T19:21:20.554Z,7.65
2022-10-29T19:23:47.451Z,7.03
2022-10-29T19:26:17.187Z,6.30
2022-10-29T19:28:47.011Z,5.75
2022-10-29T19:31:17.483Z,6.05
2022-10-29T19:33:49.795Z,5.78
2022-10-29T19:36:17.118Z,6.10
2022-10-29T19:38:44.230Z,6.10
2022-10-29T19:41:12.269Z,5.70
2022-10-29T19:43:40.722Z,4.55
2022-10-29T19:46:09.231Z,3.85
2022-10-29T19:48:36.536Z,4.78
2022-10-29T19:51:03.529Z,3.45
2022-10-29T19:53:31.179Z,3.40
2022-10-29T19:55:58.595Z,3.80
2022-10-29T19:58:27.327Z,4.05
2022-10-29T20:00:54.868Z,4.38
2022-10-29T20:03:21.735Z,4.65
2022-10-29T20:05:49.567Z,5.30
2022-10-29T20:08:16.705Z,4.25
2022-10-29T20:10:43.983Z,4.80
2022-10-29T20:13:12.232Z,4.55
2022-10-29T20:15:40.040Z,4.57
2022-10-29T20:18:07.009Z,4.22
2022-10-29T20:20:33.901Z,4.35
2022-10-29T20:23:01.280Z,4.63
2022-10-29T20:25:28.558Z,4.43
2022-10-29T20:27:57.950Z,4.10
2022-10-29T20:30:24.783Z,5.00
2022-10-29T20:32:51.694Z,5.60
2022-10-29T20:35:20.582Z,4.47
2022-10-29T20:37:47.767Z,5.03
2022-10-29T20:40:14.885Z,5.53
2022-10-29T20:42:41.727Z,5.13
2022-10-29T20:45:08.717Z,4.82
2022-10-29T20:47:35.434Z,5.53
2022-10-29T20:50:02.263Z,6.53
2022-10-29T20:52:30.367Z,6.03
2022-10-29T20:54:57.105Z,6.32
2022-10-29T20:57:23.853Z,5.28
2022-10-29T20:59:50.958Z,5.70
2022-10-29T21:02:17.810Z,5.18
2022-10-29T21:04:44.661Z,4.93
2022-10-29T21:07:11.566Z,5.18
2022-10-29T21:09:40.231Z,5.40
2022-10-29T21:12:07.925Z,4.75
2022-10-29T21:14:36.023Z,5.72
2022-10-29T21:17:02.800Z,5.20
2022-10-29T21:19:29.824Z,4.78
2022-10-29T21:21:57.858Z,3.88
2022-10-29T21:24:24.627Z,4.03
2022-10-29T21:26:51.349Z,4.53
2022-10-29T21:29:19.099Z,4.70
2022-10-29T21:31:49.658Z,5.30
2022-10-29T21:34:17.294Z,5.35
2022-10-29T21:36:44.621Z,6.15
2022-10-29T21:39:11.549Z,5.20
2022-10-29T21:41:38.285Z,5.78
2022-10-29T21:44:08.350Z,6.38
2022-10-29T21:46:36.210Z,6.85
2022-10-29T21:49:03.225Z,7.03
2022-10-29T21:51:30.444Z,6.95
2022-10-29T21:53:57.308Z,6.25
2022-10-29T21:56:24.444Z,6.32
2022-10-29T21:58:54.872Z,7.50
2022-10-29T22:01:21.841Z,5.85
2022-10-29T22:03:48.709Z,6.30
2022-10-29T22:06:21.400Z,6.30
2022-10-29T22:08:53.418Z,7.00
2022-10-29T22:11:20.261Z,7.93
2022-10-29T22:13:47.089Z,8.00
2022-10-29T22:16:13.891Z,8.57
2022-10-29T22:18:40.841Z,9.13
2022-10-29T22:21:17.990Z,8.20
2022-10-29T22:23:46.898Z,8.32
2022-10-29T22:26:15.750Z,7.85
2022-10-29T22:28:42.505Z,8.18
2022-10-29T22:31:09.627Z,7.30
2022-10-29T22:33:36.703Z,6.05
2022-10-29T22:36:09.729Z,5.43
2022-10-29T22:38:36.802Z,7.38
2022-10-29T22:41:14.573Z,7.80
2022-10-29T22:43:41.933Z,7.18
2022-10-29T22:46:09.846Z,6.20
2022-10-29T22:48:36.770Z,6.63
2022-10-29T22:51:04.865Z,6.85
2022-10-29T22:53:32.821Z,6.15
2022-10-29T22:56:00.115Z,5.75
2022-10-29T22:58:27.013Z,6.35
2022-10-29T23:01:04.379Z,6.10
2022-10-29T23:03:31.458Z,6.05
2022-10-29T23:05:59.863Z,6.15
2022-10-29T23:08:26.883Z,6.38
2022-10-29T23:10:53.617Z,6.82
2022-10-29T23:13:20.773Z,7.55
2022-10-29T23:15:48.523Z,7.82
2022-10-29T23:18:15.381Z,7.50
2022-10-29T23:20:42.442Z,6.95
2022-10-29T23:23:09.403Z,6.53
2022-10-29T23:25:36.391Z,7.45
2022-10-29T23:28:03.132Z,6.68
2022-10-29T23:30:29.869Z,6.18
2022-10-29T23:32:56.779Z,5.97
2022-10-29T23:35:23.652Z,6.40
2022-10-29T23:37:50.630Z,7.00
2022-10-29T23:40:17.432Z,6.40
2022-10-29T23:42:44.148Z,6.13
2022-10-29T23:45:13.768Z,6.60
2022-10-29T23:47:40.605Z,6.63
2022-10-29T23:50:07.933Z,6.68
2022-10-29T23:52:34.651Z,6.13
2022-10-29T23:55:01.369Z,7.55
2022-10-29T23:57:28.420Z,6.78
2022-10-29T23:59:55.111Z,7.10
